createdAt,value
2022-09-20T00:00:43.697Z,66.54
2022-09-20T00:01:43.713Z,68.83
2022-09-20T00:02:43.614Z,69.84
2022-09-20T00:03:43.596Z,68.23
2022-09-20T00:04:43.637Z,68.08
2022-09-20T00:05:43.582Z,65.92
2022-09-20T00:06:43.598Z,67.54
2022-09-20T00:07:43.558Z,67.90
2022-09-20T00:08:43.543Z,68.10
2022-09-20T00:09:43.557Z,68.11
2022-09-20T00:10:43.538Z,69.38
2022-09-20T00:11:43.551Z,66.77
2022-09-20T00:12:43.513Z,67.62
2022-09-20T00:13:43.498Z,67.60
2022-09-20T00:14:43.508Z,66.92
2022-09-20T00:15:43.491Z,66.70
2022-09-20T00:16:43.547Z,67.83
2022-09-20T00:17:43.463Z,68.38
2022-09-20T00:18:43.463Z,69.49
2022-09-20T00:19:43.455Z,70.80
2022-09-20T00:20:43.440Z,71.29
2022-09-20T00:21:43.457Z,68.44
2022-09-20T00:22:43.439Z,67.85
2022-09-20T00:23:43.431Z,68.74
2022-09-20T00:24:46.865Z,69.76
2022-09-20T00:25:43.397Z,69.44
2022-09-20T00:26:43.402Z,67.39
2022-09-20T00:27:43.373Z,65.37
2022-09-20T00:28:43.373Z,66.61
2022-09-20T00:29:43.363Z,67.84
2022-09-20T00:30:43.342Z,68.81
2022-09-20T00:31:43.437Z,66.45
2022-09-20T00:32:43.340Z,67.94
2022-09-20T00:33:43.313Z,69.34
2022-09-20T00:34:43.299Z,69.99
2022-09-20T00:35:43.291Z,70.37
2022-09-20T00:36:43.301Z,67.49
2022-09-20T00:37:43.268Z,68.02
2022-09-20T00:38:43.258Z,68.04
2022-09-20T00:39:43.248Z,66.59
2022-09-20T00:40:43.267Z,66.64
2022-09-20T00:41:43.254Z,66.85
2022-09-20T00:42:43.219Z,67.62
2022-09-20T00:43:43.208Z,66.84
2022-09-20T00:44:43.199Z,66.54
2022-09-20T00:45:43.234Z,66.89
2022-09-20T00:46:43.200Z,66.98
2022-09-20T00:47:43.168Z,67.20
2022-09-20T00:48:43.149Z,67.10
2022-09-20T00:49:43.145Z,66.32
2022-09-20T00:50:43.133Z,67.05
2022-09-20T00:51:43.151Z,68.02
2022-09-20T00:52:43.107Z,68.10
2022-09-20T00:53:43.106Z,66.08
2022-09-20T00:54:43.094Z,66.39
2022-09-20T00:55:43.093Z,67.47
2022-09-20T00:56:43.105Z,67.79
2022-09-20T00:57:43.075Z,66.38
2022-09-20T00:58:43.061Z,65.78
2022-09-20T00:59:43.051Z,66.30
2022-09-20T01:00:43.095Z,66.69
2022-09-20T01:01:43.194Z,69.44
2022-09-20T01:02:43.100Z,68.08
2022-09-20T01:03:43.004Z,67.99
2022-09-20T01:04:43.994Z,68.12
2022-09-20T01:05:42.996Z,66.69
2022-09-20T01:06:43.000Z,68.89
2022-09-20T01:07:42.975Z,68.65
2022-09-20T01:08:42.959Z,68.04
2022-09-20T01:09:42.950Z,69.60
2022-09-20T01:10:42.939Z,68.72
2022-09-20T01:11:42.951Z,68.51
2022-09-20T01:12:42.929Z,70.82
2022-09-20T01:13:42.921Z,70.49
2022-09-20T01:14:42.899Z,69.65
2022-09-20T01:15:42.891Z,69.96
2022-09-20T01:16:42.941Z,68.61
2022-09-20T01:17:42.869Z,69.55
2022-09-20T01:18:42.852Z,69.45
2022-09-20T01:19:42.857Z,69.86
2022-09-20T01:20:42.840Z,68.63
2022-09-20T01:21:42.848Z,67.82
2022-09-20T01:22:42.827Z,69.04
2022-09-20T01:23:42.813Z,69.37
2022-09-20T01:24:42.809Z,70.80
2022-09-20T01:25:42.791Z,71.98
2022-09-20T01:26:42.806Z,70.48
2022-09-20T01:27:42.773Z,69.12
2022-09-20T01:28:42.753Z,68.31
2022-09-20T01:29:42.757Z,69.84
2022-09-20T01:30:42.743Z,68.12
2022-09-20T01:31:42.846Z,68.54
2022-09-20T01:32:42.726Z,70.84
2022-09-20T01:33:42.712Z,68.68
2022-09-20T01:34:42.707Z,70.07
2022-09-20T01:35:42.700Z,70.19
2022-09-20T01:36:42.706Z,70.71
2022-09-20T01:37:42.679Z,69.89
2022-09-20T01:38:42.665Z,70.15
2022-09-20T01:39:42.661Z,70.31
2022-09-20T01:40:42.671Z,67.65
2022-09-20T01:41:42.655Z,68.01
2022-09-20T01:42:42.628Z,69.41
2022-09-20T01:43:42.619Z,69.95
2022-09-20T01:44:42.600Z,67.66
2022-09-20T01:45:42.614Z,69.17
2022-09-20T01:46:42.607Z,68.68
2022-09-20T01:47:42.578Z,69.35
2022-09-20T01:48:42.566Z,70.50
2022-09-20T01:49:42.552Z,70.17
2022-09-20T01:50:42.545Z,70.73
2022-09-20T01:51:42.556Z,70.05
2022-09-20T01:52:42.521Z,68.86
2022-09-20T01:53:42.534Z,69.03
2022-09-20T01:54:42.501Z,68.18
2022-09-20T01:55:42.512Z,69.30
2022-09-20T01:56:42.525Z,69.69
2022-09-20T01:57:42.481Z,70.50
2022-09-20T01:58:42.472Z,70.59
2022-09-20T01:59:42.473Z,69.74
2022-09-20T02:00:42.475Z,69.89
2022-09-20T02:01:42.460Z,69.76
2022-09-20T02:02:42.490Z,69.68
2022-09-20T02:03:42.424Z,68.76
2022-09-20T02:04:42.403Z,68.35
2022-09-20T02:05:42.403Z,66.86
2022-09-20T02:06:42.425Z,68.32
2022-09-20T02:07:42.384Z,67.25
2022-09-20T02:08:42.368Z,70.09
2022-09-20T02:09:42.373Z,71.66
2022-09-20T02:10:42.362Z,70.54
2022-09-20T02:11:42.360Z,70.94
2022-09-20T02:12:42.338Z,69.68
2022-09-20T02:13:42.327Z,70.34
2022-09-20T02:14:42.326Z,69.60
2022-09-20T02:15:42.308Z,70.47
2022-09-20T02:16:42.431Z,69.92
2022-09-20T02:17:42.278Z,70.00
2022-09-20T02:18:42.294Z,70.39
2022-09-20T02:19:42.259Z,70.02
2022-09-20T02:21:14.176Z,68.46
2022-09-20T02:21:42.243Z,70.08
2022-09-20T02:22:42.231Z,70.16
2022-09-20T02:23:42.221Z,69.84
2022-09-20T02:24:42.197Z,69.82
2022-09-20T02:25:42.200Z,70.12
2022-09-20T02:26:42.208Z,69.53
2022-09-20T02:27:42.180Z,68.34
2022-09-20T02:28:42.169Z,69.05
2022-09-20T02:29:42.155Z,70.53
2022-09-20T02:30:42.143Z,71.23
2022-09-20T02:31:42.253Z,69.84
2022-09-20T02:32:42.120Z,70.88
2022-09-20T02:33:43.118Z,70.73
2022-09-20T02:34:42.113Z,69.78
2022-09-20T02:35:42.103Z,69.33
2022-09-20T02:36:42.115Z,67.35
2022-09-20T02:37:42.088Z,68.44
2022-09-20T02:38:42.073Z,69.71
2022-09-20T02:39:42.061Z,69.15
2022-09-20T02:40:42.155Z,70.48
2022-09-20T02:41:42.063Z,70.54
2022-09-20T02:42:42.032Z,69.02
2022-09-20T02:43:42.038Z,71.55
2022-09-20T02:44:42.016Z,71.10
2022-09-20T02:45:42.052Z,71.14
2022-09-20T02:46:42.010Z,69.85
2022-09-20T02:47:41.986Z,69.31
2022-09-20T02:48:41.970Z,69.57
2022-09-20T02:49:41.960Z,69.29
2022-09-20T02:50:41.954Z,69.37
2022-09-20T02:51:41.971Z,70.11
2022-09-20T02:52:41.939Z,68.56
2022-09-20T02:53:41.923Z,69.06
2022-09-20T02:54:41.919Z,69.85
2022-09-20T02:55:41.893Z,68.43
2022-09-20T02:56:41.916Z,70.80
2022-09-20T02:57:41.888Z,70.02
2022-09-20T02:58:41.874Z,68.42
2022-09-20T02:59:41.861Z,67.90
2022-09-20T03:00:41.852Z,67.67
2022-09-20T03:01:41.940Z,67.46
2022-09-20T03:02:41.903Z,68.51
2022-09-20T03:03:41.821Z,70.22
2022-09-20T03:04:41.815Z,69.26
2022-09-20T03:05:41.807Z,70.18
2022-09-20T03:06:41.828Z,69.14
2022-09-20T03:07:41.786Z,70.28
2022-09-20T03:08:41.801Z,70.33
2022-09-20T03:09:41.767Z,71.55
2022-09-20T03:10:41.787Z,70.53
2022-09-20T03:11:41.748Z,69.61
2022-09-20T03:12:41.732Z,70.66
2022-09-20T03:13:41.727Z,70.26
2022-09-20T03:14:41.720Z,71.19
2022-09-20T03:15:41.722Z,72.35
2022-09-20T03:16:41.780Z,71.12
2022-09-20T03:17:42.705Z,71.21
2022-09-20T03:18:41.675Z,71.25
2022-09-20T03:19:41.662Z,70.94
2022-09-20T03:20:41.698Z,71.40
2022-09-20T03:21:41.666Z,71.17
2022-09-20T03:22:41.634Z,71.76
2022-09-20T03:23:41.627Z,72.47
2022-09-20T03:24:41.617Z,71.52
2022-09-20T03:25:41.618Z,69.99
2022-09-20T03:26:41.616Z,71.31
2022-09-20T03:27:41.587Z,71.21
2022-09-20T03:28:41.580Z,71.80
2022-09-20T03:29:41.561Z,72.33
2022-09-20T03:30:41.614Z,70.89
2022-09-20T03:31:41.589Z,72.33
2022-09-20T03:32:41.541Z,72.49
2022-09-20T03:33:41.530Z,72.26
2022-09-20T03:34:41.521Z,73.17
2022-09-20T03:35:41.617Z,72.68
2022-09-20T03:36:41.515Z,72.57
2022-09-20T03:37:41.487Z,72.08
2022-09-20T03:38:41.474Z,72.60
2022-09-20T03:39:41.468Z,72.08
2022-09-20T03:40:46.243Z,73.13
2022-09-20T03:41:43.484Z,73.61
2022-09-20T03:42:41.442Z,73.46
2022-09-20T03:43:41.420Z,72.30
2022-09-20T03:44:41.415Z,72.93
2022-09-20T03:45:41.469Z,73.64
2022-09-20T03:46:41.392Z,74.30
2022-09-20T03:47:41.386Z,72.33
2022-09-20T03:48:41.381Z,72.67
2022-09-20T03:49:41.370Z,73.27
2022-09-20T03:50:41.361Z,73.02
2022-09-20T03:51:41.364Z,73.19
2022-09-20T03:52:41.338Z,73.43
2022-09-20T03:53:41.328Z,73.11
2022-09-20T03:54:41.324Z,72.15
2022-09-20T03:55:41.300Z,73.48
2022-09-20T03:56:41.317Z,72.41
2022-09-20T03:57:41.290Z,72.33
2022-09-20T03:58:41.281Z,73.77
2022-09-20T03:59:41.269Z,73.38
2022-09-20T04:00:41.326Z,73.37
2022-09-20T04:01:41.272Z,72.78
2022-09-20T04:02:41.330Z,72.22
2022-09-20T04:03:41.228Z,71.95
2022-09-20T04:04:41.220Z,72.98
2022-09-20T04:05:41.209Z,73.30
2022-09-20T04:06:41.225Z,72.98
2022-09-20T04:07:41.188Z,74.06
2022-09-20T04:08:41.181Z,73.89
2022-09-20T04:09:41.171Z,74.04
2022-09-20T04:10:41.184Z,73.51
2022-09-20T04:11:41.153Z,72.56
2022-09-20T04:12:41.130Z,72.40
2022-09-20T04:13:41.134Z,72.42
2022-09-20T04:14:41.129Z,72.48
2022-09-20T04:15:41.108Z,71.81
2022-09-20T04:16:41.181Z,71.89
2022-09-20T04:17:41.087Z,72.55
2022-09-20T04:18:41.091Z,73.77
2022-09-20T04:19:41.074Z,72.61
2022-09-20T04:20:41.067Z,72.50
2022-09-20T04:21:41.076Z,72.36
2022-09-20T04:22:41.038Z,72.17
2022-09-20T04:23:41.028Z,72.65
2022-09-20T04:24:41.026Z,72.94
2022-09-20T04:25:44.049Z,71.88
2022-09-20T04:26:42.023Z,71.81
2022-09-20T04:27:40.998Z,72.34
2022-09-20T04:28:40.997Z,72.32
2022-09-20T04:29:40.971Z,71.69
2022-09-20T04:30:40.979Z,71.80
2022-09-20T04:31:41.026Z,71.75
2022-09-20T04:32:40.948Z,72.75
2022-09-20T04:33:40.930Z,72.73
2022-09-20T04:34:40.930Z,71.73
2022-09-20T04:35:40.907Z,72.19
2022-09-20T04:36:40.934Z,72.64
2022-09-20T04:37:40.892Z,71.88
2022-09-20T04:38:40.890Z,71.97
2022-09-20T04:39:40.863Z,73.19
2022-09-20T04:40:40.930Z,73.14
2022-09-20T04:41:40.877Z,73.31
2022-09-20T04:42:40.845Z,72.55
2022-09-20T04:43:40.827Z,71.83
2022-09-20T04:44:40.837Z,71.71
2022-09-20T04:45:40.856Z,72.45
2022-09-20T04:46:40.826Z,71.82
2022-09-20T04:47:40.788Z,72.66
2022-09-20T04:48:40.789Z,72.74
2022-09-20T04:49:40.777Z,71.98
2022-09-20T04:50:40.781Z,72.47
2022-09-20T04:51:40.794Z,71.85
2022-09-20T04:52:40.748Z,71.99
2022-09-20T04:53:40.743Z,71.66
2022-09-20T04:54:40.736Z,71.29
2022-09-20T04:55:40.731Z,71.48
2022-09-20T04:56:40.709Z,71.00
2022-09-20T04:57:40.700Z,70.63
2022-09-20T04:58:40.683Z,70.88
2022-09-20T04:59:40.668Z,71.52
2022-09-20T05:00:40.720Z,70.72
2022-09-20T05:01:40.754Z,71.99
2022-09-20T05:02:40.713Z,71.02
2022-09-20T05:03:40.642Z,71.76
2022-09-20T05:04:40.650Z,72.08
2022-09-20T05:05:40.643Z,71.31
2022-09-20T05:06:40.611Z,72.21
2022-09-20T05:07:40.602Z,71.96
2022-09-20T05:08:40.596Z,71.34
2022-09-20T05:09:40.585Z,70.84
2022-09-20T05:10:40.628Z,70.05
2022-09-20T05:11:40.567Z,71.46
2022-09-20T05:12:40.554Z,72.69
2022-09-20T05:13:40.543Z,71.70
2022-09-20T05:14:40.541Z,70.68
2022-09-20T05:15:40.534Z,71.24
2022-09-20T05:16:43.356Z,71.65
2022-09-20T05:17:40.504Z,71.38
2022-09-20T05:18:40.503Z,71.68
2022-09-20T05:19:40.487Z,71.22
2022-09-20T05:20:40.501Z,70.93
2022-09-20T05:21:40.472Z,71.24
2022-09-20T05:22:40.473Z,70.31
2022-09-20T05:23:40.451Z,70.12
2022-09-20T05:24:40.451Z,70.17
2022-09-20T05:25:40.459Z,70.83
2022-09-20T05:26:40.415Z,70.82
2022-09-20T05:27:40.410Z,70.50
2022-09-20T05:28:40.401Z,70.29
2022-09-20T05:29:40.392Z,69.92
2022-09-20T05:30:40.401Z,70.52
2022-09-20T05:31:40.496Z,71.24
2022-09-20T05:32:40.370Z,69.94
2022-09-20T05:33:40.361Z,68.60
2022-09-20T05:34:40.339Z,70.25
2022-09-20T05:35:40.354Z,70.88
2022-09-20T05:36:40.325Z,70.01
2022-09-20T05:37:40.312Z,70.90
2022-09-20T05:38:40.306Z,70.47
2022-09-20T05:39:40.293Z,70.81
2022-09-20T05:40:40.308Z,70.43
2022-09-20T05:41:40.281Z,71.46
2022-09-20T05:42:40.260Z,69.88
2022-09-20T05:43:40.256Z,70.65
2022-09-20T05:44:40.247Z,69.28
2022-09-20T05:45:40.314Z,71.31
2022-09-20T05:46:40.228Z,70.88
2022-09-20T05:47:40.217Z,70.62
2022-09-20T05:48:40.192Z,71.34
2022-09-20T05:49:40.189Z,71.11
2022-09-20T05:50:41.217Z,70.61
2022-09-20T05:51:40.178Z,69.33
2022-09-20T05:52:40.159Z,69.69
2022-09-20T05:53:41.184Z,69.42
2022-09-20T05:54:40.162Z,70.64
2022-09-20T05:55:40.157Z,71.61
2022-09-20T05:56:40.131Z,71.53
2022-09-20T05:57:40.120Z,70.14
2022-09-20T05:58:40.134Z,70.85
2022-09-20T05:59:40.104Z,70.45
2022-09-20T06:00:40.107Z,69.36
2022-09-20T06:01:40.080Z,70.54
2022-09-20T06:02:40.095Z,72.25
2022-09-20T06:03:40.071Z,69.89
2022-09-20T06:04:40.053Z,69.98
2022-09-20T06:05:40.064Z,69.15
2022-09-20T06:06:40.035Z,68.44
2022-09-20T06:07:40.026Z,70.29
2022-09-20T06:08:40.622Z,70.34
2022-09-20T06:09:40.003Z,70.35
2022-09-20T06:10:40.005Z,68.87
2022-09-20T06:11:40.057Z,67.45
2022-09-20T06:12:39.983Z,69.21
2022-09-20T06:13:39.963Z,70.21
2022-09-20T06:14:39.951Z,69.61
2022-09-20T06:15:39.961Z,68.05
2022-09-20T06:16:40.008Z,70.03
2022-09-20T06:17:39.922Z,68.87
2022-09-20T06:18:39.921Z,67.27
2022-09-20T06:19:39.908Z,68.59
2022-09-20T06:20:39.913Z,67.80
2022-09-20T06:21:39.884Z,66.31
2022-09-20T06:22:39.871Z,67.72
2022-09-20T06:23:39.873Z,67.22
2022-09-20T06:24:39.862Z,68.58
2022-09-20T06:25:39.882Z,68.24
2022-09-20T06:26:39.842Z,67.66
2022-09-20T06:27:39.836Z,68.88
2022-09-20T06:28:39.823Z,66.50
2022-09-20T06:29:39.816Z,67.97
2022-09-20T06:30:39.914Z,67.17
2022-09-20T06:31:39.804Z,66.67
2022-09-20T06:32:39.780Z,65.93
2022-09-20T06:33:39.781Z,67.51
2022-09-20T06:34:39.756Z,68.41
2022-09-20T06:35:39.772Z,69.61
2022-09-20T06:36:39.765Z,68.37
2022-09-20T06:37:39.793Z,68.62
2022-09-20T06:38:39.739Z,67.02
2022-09-20T06:39:39.722Z,67.45
2022-09-20T06:40:39.759Z,67.58
2022-09-20T06:41:40.703Z,68.30
2022-09-20T06:42:39.715Z,69.01
2022-09-20T06:43:39.683Z,68.22
2022-09-20T06:44:39.665Z,67.41
2022-09-20T06:45:39.697Z,68.12
2022-09-20T06:46:39.645Z,69.95
2022-09-20T06:47:39.631Z,67.29
2022-09-20T06:48:39.649Z,68.65
2022-09-20T06:49:39.619Z,69.34
2022-09-20T06:50:39.622Z,67.34
2022-09-20T06:51:39.600Z,66.20
2022-09-20T06:52:39.588Z,66.52
2022-09-20T06:53:39.586Z,67.42
2022-09-20T06:54:39.572Z,67.69
2022-09-20T06:55:39.577Z,67.32
2022-09-20T06:56:39.552Z,67.62
2022-09-20T06:57:39.547Z,67.79
2022-09-20T06:58:39.539Z,66.12
2022-09-20T06:59:39.525Z,65.20
2022-09-20T07:00:39.530Z,65.43
2022-09-20T07:01:39.632Z,66.02
2022-09-20T07:02:39.565Z,64.94
2022-09-20T07:03:39.488Z,64.50
2022-09-20T07:04:39.484Z,64.50
2022-09-20T07:05:39.477Z,66.22
2022-09-20T07:06:40.468Z,65.04
2022-09-20T07:07:39.449Z,65.80
2022-09-20T07:08:39.443Z,67.29
2022-09-20T07:09:39.422Z,65.11
2022-09-20T07:10:39.435Z,64.45
2022-09-20T07:11:39.410Z,64.36
2022-09-20T07:12:39.401Z,64.71
2022-09-20T07:13:39.412Z,66.70
2022-09-20T07:14:39.382Z,65.76
2022-09-20T07:15:39.394Z,65.52
2022-09-20T07:16:39.395Z,65.33
2022-09-20T07:17:39.388Z,66.29
2022-09-20T07:18:39.343Z,65.55
2022-09-20T07:19:39.330Z,65.36
2022-09-20T07:20:39.377Z,66.70
2022-09-20T07:21:39.310Z,66.33
2022-09-20T07:22:39.300Z,65.52
2022-09-20T07:23:39.288Z,64.96
2022-09-20T07:24:39.274Z,68.34
2022-09-20T07:25:39.294Z,66.72
2022-09-20T07:26:39.262Z,66.42
2022-09-20T07:27:39.246Z,65.58
2022-09-20T07:28:39.244Z,66.83
2022-09-20T07:29:39.220Z,63.61
2022-09-20T07:30:39.236Z,67.51
2022-09-20T07:31:39.252Z,65.32
2022-09-20T07:32:39.190Z,65.46
2022-09-20T07:33:39.177Z,64.16
2022-09-20T07:34:39.176Z,65.13
2022-09-20T07:35:39.167Z,63.39
2022-09-20T07:36:39.174Z,65.05
2022-09-20T07:37:39.181Z,65.97
2022-09-20T07:38:39.145Z,63.88
2022-09-20T07:39:39.124Z,66.05
2022-09-20T07:40:39.175Z,64.84
2022-09-20T07:41:39.119Z,64.47
2022-09-20T07:42:39.103Z,65.64
2022-09-20T07:43:39.097Z,64.76
2022-09-20T07:44:39.074Z,65.81
2022-09-20T07:45:39.101Z,67.37
2022-09-20T07:46:39.070Z,66.16
2022-09-20T07:47:39.048Z,66.87
2022-09-20T07:48:39.037Z,66.45
2022-09-20T07:49:39.007Z,66.60
2022-09-20T07:50:39.007Z,68.28
2022-09-20T07:51:39.025Z,67.78
2022-09-20T07:52:39.013Z,67.90
2022-09-20T07:53:38.978Z,67.97
2022-09-20T07:54:38.974Z,68.09
2022-09-20T07:55:38.964Z,68.13
2022-09-20T07:56:38.967Z,67.83
2022-09-20T07:57:39.613Z,68.25
2022-09-20T07:58:38.950Z,67.78
2022-09-20T07:59:38.931Z,67.98
2022-09-20T08:00:38.917Z,67.79
2022-09-20T08:01:38.926Z,68.88
2022-09-20T08:02:38.915Z,67.97
2022-09-20T08:03:38.885Z,68.68
2022-09-20T08:04:38.951Z,68.37
2022-09-20T08:05:38.870Z,69.38
2022-09-20T08:06:38.873Z,69.73
2022-09-20T08:07:39.644Z,68.62
2022-09-20T08:08:38.830Z,70.33
2022-09-20T08:09:38.828Z,68.92
2022-09-20T08:10:38.811Z,67.96
2022-09-20T08:11:38.822Z,69.08
2022-09-20T08:14:40.767Z,67.58
2022-09-20T08:15:38.757Z,67.85
2022-09-20T08:16:38.804Z,67.19
2022-09-20T08:17:38.747Z,68.13
2022-09-20T08:18:38.731Z,67.84
2022-09-20T08:19:38.717Z,70.60
2022-09-20T08:20:38.711Z,68.22
2022-09-20T08:21:38.719Z,67.16
2022-09-20T08:22:38.686Z,66.02
2022-09-20T08:23:38.677Z,67.11
2022-09-20T08:24:38.668Z,68.14
2022-09-20T08:25:56.035Z,67.44
2022-09-20T08:26:38.663Z,65.52
2022-09-20T08:27:38.634Z,66.01
2022-09-20T08:28:38.628Z,66.12
2022-09-20T08:29:38.620Z,67.61
2022-09-20T08:30:38.614Z,66.35
2022-09-20T08:31:38.677Z,65.69
2022-09-20T08:32:38.590Z,67.65
2022-09-20T08:33:38.613Z,65.63
2022-09-20T08:34:38.569Z,64.02
2022-09-20T08:35:38.634Z,65.00
2022-09-20T08:36:39.571Z,65.44
2022-09-20T08:37:38.547Z,64.30
2022-09-20T08:39:57.657Z,64.31
2022-09-20T08:40:39.576Z,64.66
2022-09-20T08:41:38.516Z,64.22
2022-09-20T08:42:43.728Z,65.45
2022-09-20T08:43:45.547Z,65.42
2022-09-20T08:44:45.331Z,67.67
2022-09-20T08:45:39.497Z,66.51
2022-09-20T08:46:38.525Z,63.17
2022-09-20T08:47:38.456Z,65.15
2022-09-20T08:48:38.426Z,66.04
2022-09-20T08:49:38.421Z,64.55
2022-09-20T08:50:38.416Z,62.86
2022-09-20T08:51:38.429Z,65.28
2022-09-20T08:52:38.391Z,64.95
2022-09-20T08:53:38.374Z,64.35
2022-09-20T08:54:38.382Z,64.54
2022-09-20T08:55:38.358Z,63.33
2022-09-20T08:56:38.377Z,64.88
2022-09-20T08:57:38.343Z,64.84
2022-09-20T08:58:38.329Z,67.62
2022-09-20T08:59:38.312Z,67.54
2022-09-20T09:00:38.316Z,65.42
2022-09-20T09:01:38.321Z,64.86
2022-09-20T09:02:38.329Z,63.44
2022-09-20T09:03:38.286Z,67.03
2022-09-20T09:04:38.273Z,69.00
2022-09-20T09:05:38.261Z,67.87
2022-09-20T09:06:38.275Z,66.72
2022-09-20T09:07:38.254Z,66.40
2022-09-20T09:08:38.281Z,66.21
2022-09-20T09:09:39.226Z,65.97
2022-09-20T09:10:45.374Z,66.77
2022-09-20T09:11:45.727Z,68.07
2022-09-20T09:12:39.193Z,66.80
2022-09-20T09:13:38.183Z,65.29
2022-09-20T09:14:38.176Z,68.05
2022-09-20T09:15:38.162Z,65.93
2022-09-20T09:16:38.232Z,65.63
2022-09-20T09:17:38.149Z,67.95
2022-09-20T09:18:38.132Z,67.31
2022-09-20T09:19:38.119Z,66.87
2022-09-20T09:20:38.120Z,69.25
2022-09-20T09:21:38.121Z,68.04
2022-09-20T09:22:38.098Z,65.87
2022-09-20T09:23:38.082Z,66.40
2022-09-20T09:24:38.073Z,67.64
2022-09-20T09:25:38.078Z,68.13
2022-09-20T09:26:38.066Z,68.10
2022-09-20T09:27:38.040Z,67.53
2022-09-20T09:28:38.032Z,66.91
2022-09-20T09:29:38.020Z,67.44
2022-09-20T09:30:38.010Z,68.01
2022-09-20T09:31:38.065Z,67.14
2022-09-20T09:32:37.991Z,66.95
2022-09-20T09:33:37.987Z,67.17
2022-09-20T09:34:37.974Z,64.99
2022-09-20T09:35:37.959Z,65.88
2022-09-20T09:36:37.977Z,66.81
2022-09-20T09:37:37.947Z,68.64
2022-09-20T09:38:37.936Z,67.77
2022-09-20T09:39:37.921Z,68.73
2022-09-20T09:40:37.988Z,67.62
2022-09-20T09:41:37.927Z,66.75
2022-09-20T09:42:37.889Z,69.13
2022-09-20T09:43:37.881Z,69.78
2022-09-20T09:44:37.871Z,69.49
2022-09-20T09:45:37.926Z,69.89
2022-09-20T09:46:37.865Z,71.93
2022-09-20T09:47:37.837Z,71.32
2022-09-20T09:48:39.706Z,71.28
2022-09-20T09:49:38.826Z,72.25
2022-09-20T09:50:37.815Z,71.28
2022-09-20T09:51:37.826Z,72.67
2022-09-20T09:52:37.789Z,71.90
2022-09-20T09:53:37.809Z,72.77
2022-09-20T09:54:37.796Z,72.47
2022-09-20T09:55:37.765Z,71.61
2022-09-20T09:56:37.773Z,72.12
2022-09-20T09:57:37.750Z,71.93
2022-09-20T09:58:37.740Z,73.72
2022-09-20T09:59:37.717Z,70.97
2022-09-20T10:00:37.715Z,70.18
2022-09-20T10:01:37.814Z,69.91
2022-09-20T10:02:37.713Z,70.03
2022-09-20T10:03:37.683Z,68.89
2022-09-20T10:04:37.681Z,68.35
2022-09-20T10:05:37.671Z,65.67
2022-09-20T10:06:37.675Z,65.88
2022-09-20T10:07:37.649Z,64.82
2022-09-20T10:08:37.642Z,66.42
2022-09-20T10:09:37.622Z,66.50
2022-09-20T10:10:37.617Z,66.39
2022-09-20T10:11:37.623Z,66.82
2022-09-20T10:12:37.597Z,67.22
2022-09-20T10:13:40.660Z,68.03
2022-09-20T10:14:38.642Z,69.48
2022-09-20T10:15:37.569Z,68.37
2022-09-20T10:16:37.635Z,68.97
2022-09-20T10:17:37.556Z,68.35
2022-09-20T10:18:37.539Z,69.48
2022-09-20T10:19:37.535Z,71.17
2022-09-20T10:20:37.524Z,70.27
2022-09-20T10:21:37.525Z,70.15
2022-09-20T10:22:37.503Z,69.43
2022-09-20T10:24:02.163Z,70.34
2022-09-20T10:24:39.478Z,69.67
2022-09-20T10:25:37.467Z,70.51
2022-09-20T10:26:37.650Z,69.92
2022-09-20T10:27:37.454Z,69.18
2022-09-20T10:28:37.443Z,69.60
2022-09-20T10:29:37.443Z,69.36
2022-09-20T10:30:37.500Z,69.39
2022-09-20T10:31:37.428Z,69.17
2022-09-20T10:32:37.403Z,70.79
2022-09-20T10:33:37.410Z,70.04
2022-09-20T10:34:37.383Z,69.49
2022-09-20T10:35:37.381Z,69.57
2022-09-20T10:36:37.387Z,70.08
2022-09-20T10:37:37.363Z,69.94
2022-09-20T10:38:37.349Z,69.72
2022-09-20T10:39:37.331Z,71.35
2022-09-20T10:40:37.355Z,72.88
2022-09-20T10:41:37.335Z,72.73
2022-09-20T10:42:37.311Z,72.05
2022-09-20T10:43:37.298Z,72.86
2022-09-20T10:44:37.286Z,73.30
2022-09-20T10:46:08.275Z,70.74
2022-09-20T10:46:39.328Z,72.53
2022-09-20T10:47:37.277Z,73.30
2022-09-20T10:48:37.253Z,72.63
2022-09-20T10:49:37.252Z,71.03
2022-09-20T10:50:37.229Z,72.10
2022-09-20T10:51:37.239Z,71.39
2022-09-20T10:52:38.206Z,70.39
2022-09-20T10:53:37.203Z,71.70
2022-09-20T10:54:37.195Z,71.64
2022-09-20T10:55:37.174Z,70.12
2022-09-20T10:56:37.192Z,69.98
2022-09-20T10:57:37.169Z,70.40
2022-09-20T10:58:37.147Z,69.66
2022-09-20T10:59:37.146Z,69.84
2022-09-20T11:00:37.145Z,70.95
2022-09-20T11:01:37.231Z,71.34
2022-09-20T11:02:37.174Z,72.16
2022-09-20T11:03:37.100Z,71.86
2022-09-20T11:04:37.093Z,71.73
2022-09-20T11:05:37.085Z,72.87
2022-09-20T11:06:37.096Z,73.41
2022-09-20T11:07:37.072Z,71.95
2022-09-20T11:08:37.061Z,72.55
2022-09-20T11:09:37.090Z,71.04
2022-09-20T11:10:37.038Z,71.56
2022-09-20T11:11:37.048Z,72.19
2022-09-20T11:12:37.013Z,73.20
2022-09-20T11:13:37.003Z,73.01
2022-09-20T11:14:36.996Z,71.61
2022-09-20T11:15:36.985Z,72.90
2022-09-20T11:16:37.039Z,72.54
2022-09-20T11:17:36.963Z,72.14
2022-09-20T11:18:36.947Z,71.51
2022-09-20T11:19:36.952Z,71.78
2022-09-20T11:20:36.936Z,71.72
2022-09-20T11:21:36.942Z,71.66
2022-09-20T11:22:36.911Z,71.36
2022-09-20T11:23:36.905Z,70.33
2022-09-20T11:24:36.891Z,71.30
2022-09-20T11:25:36.885Z,71.47
2022-09-20T11:26:36.888Z,72.56
2022-09-20T11:27:36.863Z,72.07
2022-09-20T11:28:36.858Z,72.63
2022-09-20T11:29:36.884Z,71.97
2022-09-20T11:30:36.827Z,71.05
2022-09-20T11:31:36.902Z,72.29
2022-09-20T11:32:36.813Z,71.93
2022-09-20T11:33:41.184Z,72.04
2022-09-20T11:34:36.792Z,72.33
2022-09-20T11:35:36.789Z,71.98
2022-09-20T11:36:36.820Z,73.10
2022-09-20T11:37:36.768Z,73.54
2022-09-20T11:38:36.756Z,72.95
2022-09-20T11:39:36.746Z,73.42
2022-09-20T11:40:36.829Z,73.28
2022-09-20T11:41:36.741Z,72.93
2022-09-20T11:42:36.716Z,73.12
2022-09-20T11:43:36.698Z,72.81
2022-09-20T11:44:36.689Z,71.89
2022-09-20T11:45:36.703Z,72.41
2022-09-20T11:46:36.694Z,71.52
2022-09-20T11:47:53.857Z,72.34
2022-09-20T11:48:38.655Z,70.39
2022-09-20T11:49:36.640Z,72.30
2022-09-20T11:50:36.635Z,73.00
2022-09-20T11:51:36.636Z,72.57
2022-09-20T11:52:36.621Z,72.01
2022-09-20T11:53:37.068Z,71.34
2022-09-20T11:54:37.592Z,71.95
2022-09-20T11:55:36.582Z,70.56
2022-09-20T11:56:36.597Z,71.19
2022-09-20T11:57:36.546Z,69.60
2022-09-20T11:58:37.553Z,69.81
2022-09-20T11:59:36.537Z,69.26
2022-09-20T12:00:36.535Z,68.97
2022-09-20T12:01:36.708Z,68.90
2022-09-20T12:02:36.635Z,68.43
2022-09-20T12:03:36.608Z,68.85
2022-09-20T12:04:36.940Z,69.90
2022-09-20T12:05:36.486Z,70.59
2022-09-20T12:06:36.489Z,69.37
2022-09-20T12:07:36.467Z,69.57
2022-09-20T12:08:36.454Z,70.72
2022-09-20T12:09:36.441Z,70.15
2022-09-20T12:10:36.436Z,69.68
2022-09-20T12:11:36.441Z,69.62
2022-09-20T12:12:36.419Z,69.87
2022-09-20T12:13:36.399Z,69.30
2022-09-20T12:14:36.388Z,69.36
2022-09-20T12:15:36.423Z,68.57
2022-09-20T12:16:36.483Z,69.06
2022-09-20T12:17:36.352Z,70.15
2022-09-20T12:18:36.348Z,70.08
2022-09-20T12:19:36.345Z,70.73
2022-09-20T12:20:36.343Z,70.34
2022-09-20T12:21:36.352Z,69.94
2022-09-20T12:22:36.319Z,70.57
2022-09-20T12:23:36.300Z,70.29
2022-09-20T12:24:38.513Z,70.44
2022-09-20T12:25:36.282Z,69.34
2022-09-20T12:26:36.294Z,69.74
2022-09-20T12:27:36.266Z,71.49
2022-09-20T12:28:36.258Z,72.18
2022-09-20T12:29:36.250Z,71.47
2022-09-20T12:30:36.239Z,71.51
2022-09-20T12:31:36.293Z,70.30
2022-09-20T12:32:36.230Z,72.16
2022-09-20T12:33:36.207Z,71.19
2022-09-20T12:34:36.192Z,71.55
2022-09-20T12:35:36.189Z,72.45
2022-09-20T12:36:36.279Z,71.83
2022-09-20T12:37:36.157Z,72.15
2022-09-20T12:38:36.166Z,72.63
2022-09-20T12:39:36.145Z,70.87
2022-09-20T12:40:36.159Z,70.18
2022-09-20T12:41:37.153Z,71.79
2022-09-20T12:42:36.127Z,70.84
2022-09-20T12:43:36.117Z,69.80
2022-09-20T12:44:36.094Z,69.93
2022-09-20T12:45:36.114Z,69.34
2022-09-20T12:46:36.106Z,68.53
2022-09-20T12:47:36.068Z,69.07
2022-09-20T12:48:36.106Z,68.16
2022-09-20T12:49:36.056Z,68.49
2022-09-20T12:50:36.048Z,69.48
2022-09-20T12:51:36.042Z,69.00
2022-09-20T12:52:36.062Z,68.33
2022-09-20T12:53:36.038Z,68.04
2022-09-20T12:54:36.017Z,68.14
2022-09-20T12:55:35.996Z,68.13